Weather at Paradise Valley Hospital Heliport [CLOSED]

Public forecast

Using degrees Fahrenheit for public forecast. Weather courtesy of forecast.io.

Closest aviation weather report (METAR) to Paradise Valley Hospital Heliport

Closest report is San Diego International Airport, 6.2 nm (11.5 km) WNW.

2024/07/14 17:13 (retrieved 17 minutes ago)

KSAN 141713Z VRB05KT 10SM SCT015 SCT080 23/18 A3006 RMK AO2 T02330178

Closest aviation forecast (TAF) to Paradise Valley Hospital Heliport

Closest forecast is San Diego International Airport, 6.2 nm (11.5 km) WNW.

2024/07/14 15:03 Ammendment (retrieved 2 hours ago)

TAF AMD KSAN 141500Z 1415/1518 VRB03KT P6SM OVC012 FM141700 29006KT P6SM SCT012 FM142000 29010KT P6SM SCT150 FM150400 VRB04KT P6SM BKN012 FM151700 29007KT P6SM SCT012